Time;durP1;ratioP1;P1;durP2;ratioP2;P2;SDS_P1;SDS_P2;PMS_P1;PMS_P2;Temp;Humidity;BMP_temperature;BMP_pressure;BME280_temperature;BME280_humidity;BME280_pressure;Samples;Min_cycle;Max_cycle;Signal;HPM_P1;HPM_P2
2022/09/21 00:01:11;;;;;;;10.40;2.58;;;26.50;99.90;;;;;;4936822;29;20087;-54
2022/09/21 00:03:40;;;;;;;6.40;1.90;;;26.50;99.90;;;;;;4936222;29;20040;-53
2022/09/21 00:06:08;;;;;;;3.80;1.85;;;26.50;99.90;;;;;;4936034;29;20075;-53
2022/09/21 00:08:34;;;;;;;6.05;1.70;;;26.50;99.90;;;;;;4936187;29;20059;-53
2022/09/21 00:11:02;;;;;;;7.18;2.03;;;26.40;99.90;;;;;;4936222;29;20070;-54
2022/09/21 00:13:28;;;;;;;4.55;1.83;;;26.40;99.90;;;;;;4935985;29;20016;-54
2022/09/21 00:15:55;;;;;;;5.78;1.52;;;26.40;99.90;;;;;;4935943;29;20024;-53
2022/09/21 00:18:21;;;;;;;3.83;1.20;;;26.40;99.90;;;;;;4935928;29;20035;-54
2022/09/21 00:20:47;;;;;;;5.78;1.48;;;26.40;99.90;;;;;;4934617;29;20028;-54
2022/09/21 00:23:13;;;;;;;4.72;1.60;;;26.40;99.90;;;;;;4935781;29;20172;-54
2022/09/21 00:25:39;;;;;;;5.82;1.80;;;26.40;99.90;;;;;;4936027;29;20111;-53
2022/09/21 00:28:05;;;;;;;7.15;1.77;;;26.40;99.90;;;;;;4935734;29;20036;-54
2022/09/21 00:30:30;;;;;;;4.50;1.35;;;26.40;99.90;;;;;;4935697;29;20028;-53
2022/09/21 00:32:56;;;;;;;7.78;1.88;;;26.40;99.90;;;;;;4935632;29;20053;-54
2022/09/21 00:35:22;;;;;;;4.90;1.75;;;26.40;99.90;;;;;;4935636;29;20126;-53
2022/09/21 00:37:48;;;;;;;8.23;2.03;;;26.40;99.90;;;;;;4935591;29;20051;-53
2022/09/21 00:40:13;;;;;;;4.97;2.00;;;26.40;99.90;;;;;;4935474;29;20031;-53
2022/09/21 00:42:39;;;;;;;9.20;1.90;;;26.40;99.90;;;;;;4935468;29;20543;-54
2022/09/21 00:45:05;;;;;;;4.10;1.70;;;26.40;99.90;;;;;;4935513;29;20040;-53
2022/09/21 00:47:43;;;;;;;6.40;1.98;;;26.40;99.90;;;;;;4934664;29;20027;-54
2022/09/21 00:50:14;;;;;;;7.07;2.13;;;26.40;99.90;;;;;;4935290;29;20027;-54
2022/09/21 00:52:44;;;;;;;5.70;2.03;;;26.40;99.90;;;;;;4935448;29;20512;-54
2022/09/21 00:55:25;;;;;;;8.82;2.63;;;26.40;99.90;;;;;;4935317;29;20035;-53
2022/09/21 00:58:00;;;;;;;10.68;2.30;;;26.40;99.90;;;;;;4935139;29;20556;-53
2022/09/21 01:00:26;;;;;;;8.00;2.28;;;26.40;99.90;;;;;;4945343;23;20043;-55
2022/09/21 01:02:52;;;;;;;4.38;2.13;;;26.40;99.90;;;;;;4934861;29;20086;-53
2022/09/21 01:05:18;;;;;;;4.32;1.73;;;26.30;99.90;;;;;;4934883;29;20028;-54
2022/09/21 01:07:46;;;;;;;4.50;2.00;;;26.30;99.90;;;;;;4935028;29;20409;-53
2022/09/21 01:10:16;;;;;;;4.10;1.80;;;26.30;99.90;;;;;;4934991;29;20074;-54
2022/09/21 01:13:00;;;;;;;2.90;1.27;;;26.30;99.90;;;;;;4935080;29;20078;-54
2022/09/21 01:15:50;;;;;;;4.50;1.52;;;26.30;99.90;;;;;;4934699;29;20030;-53
2022/09/21 01:18:34;;;;;;;6.22;1.92;;;26.20;99.90;;;;;;4935053;29;20047;-53
2022/09/21 01:21:22;;;;;;;4.10;1.90;;;26.10;99.90;;;;;;4934629;29;20488;-53
2022/09/21 01:24:16;;;;;;;5.07;1.60;;;26.10;99.90;;;;;;4934486;29;20550;-54
2022/09/21 01:27:00;;;;;;;5.18;2.00;;;26.10;99.90;;;;;;4934646;29;20031;-54
2022/09/21 01:29:58;;;;;;;5.13;1.83;;;26.00;99.90;;;;;;4934595;29;20031;-53
2022/09/21 01:32:31;;;;;;;3.42;1.35;;;26.00;99.90;;;;;;4934450;29;20050;-53
2022/09/21 01:35:07;;;;;;;6.90;1.58;;;26.00;99.90;;;;;;4934480;29;20030;-53
2022/09/21 01:37:56;;;;;;;8.05;1.92;;;26.00;99.90;;;;;;4934350;29;20051;-54
2022/09/21 01:40:31;;;;;;;6.40;2.20;;;26.00;99.90;;;;;;4934372;29;20471;-54
2022/09/21 01:42:59;;;;;;;8.63;2.00;;;26.00;99.90;;;;;;4934228;29;20140;-54
2022/09/21 01:45:39;;;;;;;7.40;2.25;;;26.00;99.90;;;;;;4934280;29;20028;-54
2022/09/21 01:48:06;;;;;;;6.60;2.55;;;26.00;99.90;;;;;;4934174;29;20028;-55
2022/09/21 01:50:37;;;;;;;9.83;2.50;;;26.00;99.90;;;;;;4934247;29;20083;-53
2022/09/21 01:53:20;;;;;;;6.53;1.92;;;25.90;99.90;;;;;;4934175;29;20046;-54
2022/09/21 01:55:51;;;;;;;4.75;1.67;;;25.90;99.90;;;;;;4933211;29;20380;-54
2022/09/21 01:58:37;;;;;;;5.53;1.58;;;25.80;99.90;;;;;;4934363;29;20531;-54
2022/09/21 02:01:08;;;;;;;4.57;1.60;;;25.80;99.90;;;;;;4934209;29;20043;-54
2022/09/21 02:03:41;;;;;;;5.38;1.92;;;25.80;99.90;;;;;;4934091;29;20468;-54
2022/09/21 02:06:08;;;;;;;6.25;1.30;;;25.80;99.90;;;;;;4934154;29;20270;-54
2022/09/21 02:08:36;;;;;;;3.95;1.50;;;25.80;99.90;;;;;;4934026;29;20032;-54
2022/09/21 02:11:04;;;;;;;9.32;1.85;;;25.80;99.90;;;;;;4934088;29;20039;-54
2022/09/21 02:13:35;;;;;;;7.15;1.60;;;25.80;99.90;;;;;;4934042;29;20201;-54
2022/09/21 02:16:31;;;;;;;9.68;1.83;;;25.80;99.90;;;;;;4933929;29;20106;-53
2022/09/21 02:19:09;;;;;;;6.28;1.70;;;25.80;99.90;;;;;;4933908;29;20020;-53
2022/09/21 02:21:50;;;;;;;5.97;1.92;;;25.70;99.90;;;;;;4933894;29;20028;-54
2022/09/21 02:24:28;;;;;;;6.20;2.40;;;25.70;99.90;;;;;;4934058;29;20492;-54
2022/09/21 02:27:01;;;;;;;4.63;1.70;;;25.70;99.90;;;;;;4933841;29;20037;-54
2022/09/21 02:29:42;;;;;;;5.18;1.50;;;25.70;99.90;;;;;;4933915;29;20043;-54
2022/09/21 02:32:09;;;;;;;4.57;1.83;;;25.70;99.90;;;;;;4933934;29;20492;-54
2022/09/21 02:34:56;;;;;;;4.82;2.03;;;25.70;99.90;;;;;;4933887;29;20036;-54
2022/09/21 02:37:44;;;;;;;3.50;1.70;;;25.60;99.90;;;;;;4933818;29;20137;-53
2022/09/21 02:40:21;;;;;;;6.45;2.08;;;25.60;99.90;;;;;;4933892;29;20028;-54
2022/09/21 02:42:48;;;;;;;6.97;2.03;;;25.60;99.90;;;;;;4933914;29;20032;-54
2022/09/21 02:45:29;;;;;;;5.63;1.90;;;25.60;99.90;;;;;;4933685;29;20477;-54
2022/09/21 02:48:18;;;;;;;2.55;1.63;;;25.60;99.90;;;;;;4933797;29;20488;-54
2022/09/21 02:50:49;;;;;;;7.80;1.90;;;25.60;99.90;;;;;;4933228;29;20436;-54
2022/09/21 02:53:22;;;;;;;5.60;1.73;;;25.60;99.90;;;;;;4933692;29;20474;-54
2022/09/21 02:55:50;;;;;;;5.43;1.92;;;25.60;99.90;;;;;;4933885;29;20030;-54
2022/09/21 02:58:20;;;;;;;4.60;1.45;;;25.60;99.90;;;;;;4933645;29;20115;-54
2022/09/21 03:00:46;;;;;;;5.35;1.42;;;25.60;99.90;;;;;;4934097;29;20051;-55
2022/09/21 03:03:20;;;;;;;5.97;2.13;;;25.60;99.90;;;;;;4933703;29;20488;-54
2022/09/21 03:05:48;;;;;;;3.92;1.60;;;25.60;99.90;;;;;;4933872;29;20020;-54
2022/09/21 03:08:16;;;;;;;8.07;1.90;;;25.60;99.90;;;;;;4933637;29;20028;-54
2022/09/21 03:10:41;;;;;;;6.15;1.80;;;25.60;99.90;;;;;;4935891;29;20028;-54
2022/09/21 03:13:08;;;;;;;6.35;1.63;;;25.60;99.90;;;;;;4937071;29;20384;-54
2022/09/21 03:15:35;;;;;;;7.35;1.90;;;25.60;99.90;;;;;;4936940;29;20024;-54
2022/09/21 03:18:03;;;;;;;10.40;2.00;;;25.60;99.90;;;;;;4936892;29;20480;-54
2022/09/21 03:20:31;;;;;;;5.50;2.15;;;25.60;99.90;;;;;;4936894;29;20035;-54
2022/09/21 03:22:57;;;;;;;;;;;25.60;99.90;;;;;;4937244;29;20019;-54
2022/09/21 03:25:22;;;;;;;4.05;1.42;;;25.60;99.90;;;;;;4936947;29;19907;-54
2022/09/21 03:27:52;;;;;;;4.13;1.98;;;25.60;99.90;;;;;;4936908;29;20038;-54
2022/09/21 03:30:19;;;;;;;7.53;2.78;;;25.70;99.90;;;;;;4936715;29;20408;-54
2022/09/21 03:32:47;;;;;;;8.68;2.25;;;25.60;99.90;;;;;;4936581;29;20058;-54
2022/09/21 03:35:13;;;;;;;4.60;1.70;;;25.70;99.90;;;;;;4936721;29;20035;-54
2022/09/21 03:37:39;;;;;;;6.25;1.98;;;25.70;99.90;;;;;;4936544;29;20031;-54
2022/09/21 03:40:05;;;;;;;6.10;2.00;;;25.70;99.90;;;;;;4936526;29;20495;-54
2022/09/21 03:42:31;;;;;;;7.45;2.33;;;25.70;99.90;;;;;;4936541;29;20118;-54
2022/09/21 03:44:57;;;;;;;5.13;1.63;;;25.70;99.90;;;;;;4936310;29;20043;-54
2022/09/21 03:47:23;;;;;;;3.10;1.50;;;25.70;99.90;;;;;;4936557;29;20035;-54
2022/09/21 03:49:48;;;;;;;2.50;1.30;;;25.70;99.90;;;;;;4936402;29;20031;-54
2022/09/21 03:52:14;;;;;;;7.63;2.03;;;25.60;99.90;;;;;;4936318;29;20030;-54
2022/09/21 03:54:40;;;;;;;4.82;1.88;;;25.70;99.90;;;;;;4936385;29;20028;-54
2022/09/21 03:57:05;;;;;;;7.20;2.22;;;25.60;99.90;;;;;;4936182;29;20365;-53
2022/09/21 03:59:31;;;;;;;12.32;7.72;;;25.60;99.90;;;;;;4936502;29;20051;-54
2022/09/21 04:01:57;;;;;;;4.80;2.17;;;25.60;99.90;;;;;;4936575;29;20122;-54
2022/09/21 04:04:22;;;;;;;6.38;1.98;;;25.60;99.90;;;;;;4936176;29;20365;-54
2022/09/21 04:06:48;;;;;;;7.50;2.05;;;25.50;99.90;;;;;;4935808;29;20030;-53
2022/09/21 04:09:14;;;;;;;6.38;2.38;;;25.50;99.90;;;;;;4936083;29;20119;-54
2022/09/21 04:11:40;;;;;;;5.88;2.35;;;25.50;99.90;;;;;;4935938;29;20032;-54
2022/09/21 04:14:05;;;;;;;4.55;1.70;;;25.50;99.90;;;;;;4936053;29;20050;-54
2022/09/21 04:16:31;;;;;;;6.45;2.25;;;25.50;99.90;;;;;;4935738;29;20429;-54
2022/09/21 04:18:57;;;;;;;6.90;2.38;;;25.50;99.90;;;;;;4936084;29;20039;-54
2022/09/21 04:21:22;;;;;;;6.20;2.08;;;25.50;99.90;;;;;;4934945;29;20032;-54
2022/09/21 04:23:48;;;;;;;11.63;2.90;;;25.40;99.90;;;;;;4935726;29;20519;-54
2022/09/21 04:26:26;;;;;;;6.05;3.20;;;25.40;99.90;;;;;;4934360;29;20028;-54
2022/09/21 04:28:54;;;;;;;8.27;2.65;;;25.40;99.90;;;;;;4930277;29;20484;-54
2022/09/21 04:31:20;;;;;;;5.55;2.40;;;25.40;99.90;;;;;;4924925;29;20043;-54
2022/09/21 04:33:50;;;;;;;10.10;3.03;;;25.40;99.90;;;;;;4932507;29;20440;-53
2022/09/21 04:36:18;;;;;;;6.07;2.75;;;25.50;99.90;;;;;;4934906;29;20608;-53
2022/09/21 04:38:44;;;;;;;8.50;2.65;;;25.40;99.90;;;;;;4934922;29;20082;-53
2022/09/21 04:41:11;;;;;;;10.80;2.63;;;25.50;99.90;;;;;;4934836;29;20036;-53
2022/09/21 04:43:37;;;;;;;5.30;2.22;;;25.40;99.90;;;;;;4930626;29;20036;-53
2022/09/21 04:46:11;;;;;;;9.48;1.98;;;25.40;99.90;;;;;;4935198;29;20099;-53
2022/09/21 04:48:38;;;;;;;4.65;2.50;;;25.40;99.90;;;;;;4934397;29;20063;-53
2022/09/21 04:51:06;;;;;;;8.10;2.13;;;25.40;99.90;;;;;;4934457;29;20032;-53
2022/09/21 04:53:33;;;;;;;9.32;2.17;;;25.40;99.90;;;;;;4933254;29;20588;-54
2022/09/21 04:55:59;;;;;;;8.63;2.63;;;25.40;99.90;;;;;;4933322;29;20023;-53
2022/09/21 04:58:25;;;;;;;12.68;2.42;;;25.40;99.90;;;;;;4931781;29;20026;-53
2022/09/21 05:00:52;;;;;;;9.23;2.20;;;25.30;99.90;;;;;;4933106;29;20055;-53
2022/09/21 05:03:18;;;;;;;6.85;2.08;;;25.30;99.90;;;;;;4933001;29;20043;-53
2022/09/21 05:06:03;;;;;;;5.75;2.10;;;25.30;99.90;;;;;;4933025;29;20030;-53
2022/09/21 05:11:17;;;;;;;6.00;2.92;;;25.30;99.90;;;;;;4932945;29;20047;-53
2022/09/21 05:13:44;;;;;;;6.82;2.70;;;25.30;99.90;;;;;;4932909;29;20023;-54
2022/09/21 05:16:10;;;;;;;9.05;1.92;;;25.30;99.90;;;;;;4932882;29;20118;-53
2022/09/21 05:18:36;;;;;;;9.85;2.08;;;25.30;99.90;;;;;;4933122;29;20060;-53
2022/09/21 05:21:03;;;;;;;10.70;2.20;;;25.20;99.90;;;;;;4933030;29;20494;-53
2022/09/21 05:23:30;;;;;;;8.82;2.38;;;25.20;99.90;;;;;;4933477;29;20028;-53
2022/09/21 05:25:58;;;;;;;7.05;2.05;;;25.20;99.90;;;;;;4934605;29;20028;-53
2022/09/21 05:28:24;;;;;;;7.65;2.83;;;25.20;99.90;;;;;;4934629;29;20468;-53
2022/09/21 05:31:05;;;;;;;7.22;2.58;;;25.30;99.90;;;;;;4934608;29;20114;-54
2022/09/21 05:33:34;;;;;;;11.15;2.67;;;25.20;99.90;;;;;;4934381;29;20164;-53
2022/09/21 05:36:28;;;;;;;10.27;3.00;;;25.20;99.90;;;;;;4934420;29;20024;-53
2022/09/21 05:38:55;;;;;;;7.47;2.30;;;25.20;99.90;;;;;;4934461;29;20064;-53
2022/09/21 05:41:22;;;;;;;10.95;2.33;;;25.20;99.90;;;;;;4934286;29;20447;-53
2022/09/21 05:43:47;;;;;;;9.07;2.70;;;25.20;99.90;;;;;;4934049;29;20509;-53
2022/09/21 05:46:37;;;;;;;7.95;2.80;;;25.20;99.90;;;;;;4934086;29;20118;-53
2022/09/21 05:49:26;;;;;;;4.72;2.22;;;25.20;99.90;;;;;;4934282;29;20035;-53
2022/09/21 05:52:32;;;;;;;13.23;3.30;;;25.20;99.90;;;;;;4905645;29;20404;-53
2022/09/21 05:55:10;;;;;;;16.67;2.83;;;25.20;99.90;;;;;;4934227;29;20043;-53
2022/09/21 05:58:09;;;;;;;20.00;3.10;;;25.20;99.90;;;;;;4934274;29;20051;-53
2022/09/21 06:01:07;;;;;;;13.88;2.75;;;25.20;99.90;;;;;;4933906;29;20126;-53
2022/09/21 06:03:35;;;;;;;16.02;3.90;;;25.10;99.90;;;;;;4914139;29;20453;-53
2022/09/21 06:06:00;;;;;;;9.80;2.95;;;25.20;99.90;;;;;;4934160;29;20103;-53
2022/09/21 06:08:26;;;;;;;10.45;2.40;;;25.20;99.90;;;;;;4933997;29;20032;-53
2022/09/21 06:10:53;;;;;;;7.28;2.38;;;25.20;99.90;;;;;;4933852;29;20036;-53
2022/09/21 06:13:19;;;;;;;14.67;2.50;;;25.10;99.90;;;;;;4932619;29;20506;-53
2022/09/21 06:15:45;;;;;;;10.18;2.28;;;25.10;99.90;;;;;;4934032;29;20345;-55
2022/09/21 06:18:11;;;;;;;22.15;2.83;;;25.10;99.90;;;;;;4933815;29;20063;-53
2022/09/21 06:20:37;;;;;;;9.98;2.42;;;25.10;99.90;;;;;;4933855;29;20043;-53
2022/09/21 06:23:04;;;;;;;12.35;2.78;;;25.10;99.90;;;;;;4933962;29;20036;-55
2022/09/21 06:25:30;;;;;;;15.85;2.78;;;25.10;99.90;;;;;;4933944;29;20034;-53
2022/09/21 06:28:03;;;;;;;9.10;3.20;;;25.00;99.90;;;;;;4933880;29;20032;-53
2022/09/21 06:30:30;;;;;;;9.82;2.50;;;25.10;99.90;;;;;;4933565;29;20039;-53
2022/09/21 06:32:59;;;;;;;7.95;2.95;;;25.00;99.90;;;;;;4933767;29;20083;-54
2022/09/21 06:35:25;;;;;;;13.18;3.03;;;25.00;99.90;;;;;;4933720;29;20094;-53
2022/09/21 06:37:50;;;;;;;10.75;2.92;;;25.00;99.90;;;;;;4933761;29;20401;-53
2022/09/21 06:40:16;;;;;;;9.65;2.50;;;25.00;99.90;;;;;;4933644;29;20030;-53
2022/09/21 06:42:42;;;;;;;11.73;3.00;;;25.00;99.90;;;;;;4932312;29;20031;-53
2022/09/21 06:45:08;;;;;;;14.00;2.70;;;25.00;99.90;;;;;;4935164;29;20062;-55
2022/09/21 06:47:34;;;;;;;13.88;2.85;;;25.00;99.90;;;;;;4937470;29;20047;-54
2022/09/21 06:50:00;;;;;;;9.93;2.60;;;25.00;99.90;;;;;;4937186;29;20481;-53
2022/09/21 06:52:26;;;;;;;12.68;3.15;;;25.00;99.90;;;;;;4937107;29;20036;-53
2022/09/21 06:54:51;;;;;;;12.55;3.38;;;25.00;99.90;;;;;;4936907;29;20032;-54
2022/09/21 06:57:17;;;;;;;13.80;2.65;;;25.00;99.90;;;;;;4936001;29;20035;-53
2022/09/21 06:59:43;;;;;;;12.63;2.75;;;25.10;99.90;;;;;;4936971;29;20063;-53
2022/09/21 07:02:09;;;;;;;15.85;2.58;;;25.10;99.90;;;;;;4937197;29;20028;-55
2022/09/21 07:04:34;;;;;;;11.45;2.60;;;25.10;99.90;;;;;;4937253;29;20518;-54
2022/09/21 07:07:00;;;;;;;16.92;2.20;;;25.20;99.90;;;;;;4935632;29;20039;-53
2022/09/21 07:09:26;;;;;;;15.77;2.28;;;25.20;99.90;;;;;;4936993;29;20483;-53
2022/09/21 07:11:53;;;;;;;15.23;2.42;;;25.20;99.90;;;;;;4937084;29;20079;-54
2022/09/21 07:14:21;;;;;;;8.13;2.50;;;25.30;99.90;;;;;;4936906;29;20028;-53
2022/09/21 07:16:47;;;;;;;10.15;1.70;;;25.30;99.90;;;;;;4935711;29;20468;-53
2022/09/21 07:19:13;;;;;;;11.90;1.98;;;25.30;99.90;;;;;;4936700;29;20119;-53
2022/09/21 07:21:39;;;;;;;7.32;1.88;;;25.40;99.90;;;;;;4936896;29;20102;-53
2022/09/21 07:24:04;;;;;;;8.00;2.58;;;25.40;99.90;;;;;;4919537;29;20151;-53
2022/09/21 07:26:30;;;;;;;10.10;1.98;;;25.50;99.90;;;;;;4936614;29;20028;-53
2022/09/21 07:28:56;;;;;;;10.90;2.15;;;25.50;99.90;;;;;;4936509;29;20024;-53
2022/09/21 07:31:22;;;;;;;5.25;1.90;;;25.60;99.90;;;;;;4936382;29;20030;-53
2022/09/21 07:33:47;;;;;;;7.22;3.22;;;25.60;99.90;;;;;;4936628;29;20036;-53
2022/09/21 07:36:15;;;;;;;8.77;2.10;;;25.60;99.90;;;;;;4936421;29;20040;-55
2022/09/21 07:38:43;;;;;;;12.40;2.55;;;25.70;99.90;;;;;;4936372;29;20074;-53
2022/09/21 07:41:09;;;;;;;;;;;25.70;99.90;;;;;;4937100;29;20039;-53
2022/09/21 07:43:38;;;;;;;5.15;2.28;;;25.70;99.90;;;;;;4936239;29;19922;-54
2022/09/21 07:46:04;;;;;;;5.53;2.38;;;25.80;99.90;;;;;;4936361;29;20163;-53
2022/09/21 07:48:30;;;;;;;8.40;2.13;;;25.80;99.90;;;;;;4936467;29;20048;-53
2022/09/21 07:51:04;;;;;;;7.00;1.80;;;25.90;99.90;;;;;;4936314;29;20027;-53
2022/09/21 07:53:34;;;;;;;6.47;1.83;;;25.90;99.90;;;;;;4936107;29;20498;-55
2022/09/21 07:56:02;;;;;;;5.68;1.65;;;25.90;99.90;;;;;;4936129;29;20155;-54
2022/09/21 08:01:12;;;;;;;12.38;2.95;;;26.00;99.90;;;;;;4936121;29;20086;-53
2022/09/21 08:03:38;;;;;;;7.18;2.03;;;26.00;99.90;;;;;;4936144;29;20092;-54
2022/09/21 08:06:03;;;;;;;8.60;2.40;;;26.10;99.90;;;;;;4936156;29;20024;-54
2022/09/21 08:08:29;;;;;;;7.93;1.85;;;26.10;99.90;;;;;;4935874;29;20092;-53
2022/09/21 08:11:00;;;;;;;8.38;2.00;;;26.10;99.90;;;;;;4935950;29;20019;-54
2022/09/21 08:13:26;;;;;;;10.43;2.10;;;26.10;99.90;;;;;;4935858;29;20028;-54
2022/09/21 08:16:02;;;;;;;10.35;2.53;;;26.20;99.90;;;;;;4936078;29;20035;-54
2022/09/21 08:18:28;;;;;;;6.60;1.90;;;26.10;99.90;;;;;;4935623;29;20045;-54
2022/09/21 08:20:56;;;;;;;9.00;2.10;;;26.20;99.90;;;;;;4935627;29;20353;-53
2022/09/21 08:23:22;;;;;;;6.00;2.42;;;26.20;99.90;;;;;;4935648;29;20123;-54
2022/09/21 08:25:48;;;;;;;12.70;2.50;;;26.20;99.90;;;;;;4935663;29;20032;-53
2022/09/21 08:28:14;;;;;;;9.38;2.03;;;26.30;99.90;;;;;;4935553;29;20472;-54
2022/09/21 08:30:41;;;;;;;5.82;1.88;;;26.20;99.90;;;;;;4935622;29;20036;-54
2022/09/21 08:33:07;;;;;;;7.55;2.55;;;26.30;99.90;;;;;;4935516;29;20102;-54
2022/09/21 08:35:34;;;;;;;5.63;2.50;;;26.30;99.90;;;;;;4935411;29;20087;-54
2022/09/21 08:38:00;;;;;;;5.47;1.70;;;26.30;99.90;;;;;;4935367;29;20107;-54
2022/09/21 08:40:26;;;;;;;8.45;2.28;;;26.40;99.90;;;;;;4935290;29;20118;-54
2022/09/21 08:42:58;;;;;;;10.05;2.17;;;26.30;99.90;;;;;;4935235;29;20023;-55
2022/09/21 08:45:31;;;;;;;6.93;1.92;;;26.30;99.90;;;;;;4935271;29;20035;-54
2022/09/21 08:47:58;;;;;;;11.15;1.98;;;26.30;99.90;;;;;;4935149;29;20500;-53
2022/09/21 08:50:39;;;;;;;8.38;2.05;;;26.40;99.90;;;;;;4935188;29;20032;-54
2022/09/21 08:53:36;;;;;;;8.30;3.08;;;26.40;99.90;;;;;;4935167;29;20400;-54
2022/09/21 08:56:03;;;;;;;9.15;2.22;;;26.40;99.90;;;;;;4934479;29;20542;-53
2022/09/21 08:58:31;;;;;;;12.45;2.47;;;26.40;99.90;;;;;;4935062;29;20110;-53
2022/09/21 09:01:04;;;;;;;5.75;2.05;;;26.40;99.90;;;;;;4934890;29;20052;-53
2022/09/21 09:03:54;;;;;;;11.23;5.10;;;26.40;99.90;;;;;;4934667;29;20074;-54
2022/09/21 09:06:34;;;;;;;13.55;2.70;;;26.30;99.90;;;;;;4934700;29;20087;-54
2022/09/21 09:09:28;;;;;;;12.63;4.30;;;26.30;99.90;;;;;;4934184;29;20115;-54
2022/09/21 09:12:26;;;;;;;8.02;3.10;;;26.30;99.90;;;;;;4934644;29;20024;-54
2022/09/21 09:15:22;;;;;;;12.60;4.63;;;26.30;99.90;;;;;;4934719;29;20111;-54
2022/09/21 09:18:08;;;;;;;13.57;3.43;;;26.20;99.90;;;;;;4934633;29;20035;-54
2022/09/21 09:20:39;;;;;;;11.77;2.13;;;26.20;99.90;;;;;;4934587;29;20246;-54
2022/09/21 09:23:31;;;;;;;8.15;2.08;;;26.20;99.90;;;;;;4934298;29;20034;-54
2022/09/21 09:26:10;;;;;;;5.88;2.13;;;26.20;99.90;;;;;;4934553;29;20032;-54
2022/09/21 09:29:01;;;;;;;9.27;2.05;;;26.20;99.90;;;;;;4934602;29;20103;-55
2022/09/21 09:31:34;;;;;;;8.63;2.65;;;26.20;99.90;;;;;;4934348;29;20111;-54
2022/09/21 09:34:00;;;;;;;10.07;2.42;;;26.20;99.90;;;;;;4934298;29;20031;-54
2022/09/21 09:36:32;;;;;;;7.75;2.60;;;26.20;99.90;;;;;;4934292;29;20388;-54
2022/09/21 09:39:02;;;;;;;8.05;2.20;;;26.20;99.90;;;;;;4934202;29;20551;-54
2022/09/21 09:41:48;;;;;;;7.30;1.95;;;26.20;99.90;;;;;;4934080;29;20357;-54
2022/09/21 09:44:32;;;;;;;9.82;2.13;;;26.20;99.90;;;;;;4934100;29;20047;-54
2022/09/21 09:47:18;;;;;;;5.80;2.17;;;26.30;99.90;;;;;;4934194;29;20070;-54
2022/09/21 09:49:47;;;;;;;12.95;2.42;;;26.30;99.90;;;;;;4934385;29;20031;-54
2022/09/21 09:52:15;;;;;;;11.85;4.53;;;26.30;99.90;;;;;;4934103;29;20082;-54
2022/09/21 09:54:41;;;;;;;10.93;3.83;;;26.40;99.90;;;;;;4934083;29;20035;-54
2022/09/21 09:57:08;;;;;;;14.68;7.40;;;26.40;99.90;;;;;;4934008;29;20515;-54
2022/09/21 09:59:41;;;;;;;10.02;5.03;;;26.50;99.90;;;;;;4933939;29;20030;-54
2022/09/21 10:02:28;;;;;;;9.60;2.80;;;26.50;99.90;;;;;;4933902;29;20098;-54
2022/09/21 10:05:08;;;;;;;9.95;2.63;;;26.60;99.90;;;;;;4933828;29;20098;-54
2022/09/21 10:07:42;;;;;;;6.53;1.80;;;26.60;99.90;;;;;;4933759;29;20067;-54
2022/09/21 10:10:31;;;;;;;6.30;2.55;;;26.70;99.90;;;;;;4933896;29;20027;-54
2022/09/21 10:13:15;;;;;;;12.60;3.05;;;26.80;99.90;;;;;;4933985;29;20024;-54
2022/09/21 10:15:53;;;;;;;6.72;2.67;;;26.90;99.90;;;;;;4933897;29;20191;-54
2022/09/21 10:18:22;;;;;;;5.80;2.03;;;26.90;99.90;;;;;;4933931;29;20035;-54
2022/09/21 10:20:55;;;;;;;6.63;1.85;;;27.00;99.90;;;;;;4936621;29;20027;-54
2022/09/21 10:23:22;;;;;;;3.88;1.80;;;27.10;99.90;;;;;;4937757;29;20032;-54
2022/09/21 10:26:23;;;;;;;6.75;2.30;;;27.20;99.90;;;;;;4937986;29;20019;-54
2022/09/21 10:28:57;;;;;;;6.68;2.35;;;27.20;99.90;;;;;;4878816;29;20501;-54
2022/09/21 10:31:25;;;;;;;7.80;2.83;;;27.30;99.90;;;;;;4928565;29;20485;-54
2022/09/21 10:34:03;;;;;;;4.93;2.10;;;27.30;99.90;;;;;;4937786;29;20119;-54
2022/09/21 10:36:34;;;;;;;7.00;2.30;;;27.40;99.90;;;;;;4937687;29;20575;-54
2022/09/21 10:39:18;;;;;;;8.68;2.80;;;27.40;99.90;;;;;;4937409;29;20015;-54
2022/09/21 10:42:14;;;;;;;4.50;1.77;;;27.40;99.90;;;;;;4937460;29;20042;-54
2022/09/21 10:44:42;;;;;;;6.57;1.90;;;27.50;99.90;;;;;;4937437;29;20042;-53
2022/09/21 10:47:22;;;;;;;8.93;1.90;;;27.50;99.90;;;;;;4937332;29;20027;-54
2022/09/21 10:49:59;;;;;;;6.38;2.35;;;27.50;99.90;;;;;;4937419;29;20043;-54
2022/09/21 10:52:32;;;;;;;;;;;27.60;99.90;;;;;;4937591;29;20435;-54
2022/09/21 10:54:58;;;;;;;5.90;2.58;;;27.60;99.90;;;;;;4937181;29;19942;-54
2022/09/21 10:57:26;;;;;;;7.35;2.80;;;27.60;99.90;;;;;;4937219;29;20035;-54
2022/09/21 10:59:52;;;;;;;7.43;2.72;;;27.60;99.90;;;;;;4937207;29;20467;-53
2022/09/21 11:02:30;;;;;;;8.05;1.90;;;27.60;99.90;;;;;;4936952;29;20480;-54
2022/09/21 11:05:11;;;;;;;15.65;2.95;;;27.60;99.90;;;;;;4936835;29;20048;-54
2022/09/21 11:07:45;;;;;;;9.27;1.95;;;27.70;99.90;;;;;;4936824;29;20028;-54
2022/09/21 11:10:27;;;;;;;4.57;1.85;;;27.70;99.90;;;;;;4937039;29;20393;-54
2022/09/21 11:13:08;;;;;;;6.85;3.72;;;27.70;99.90;;;;;;4936995;29;20048;-54
2022/09/21 11:15:49;;;;;;;6.43;2.03;;;27.70;99.90;;;;;;4935684;29;20472;-54
2022/09/21 11:18:46;;;;;;;5.05;1.83;;;27.80;99.90;;;;;;4936726;29;20110;-54
2022/09/21 11:21:23;;;;;;;8.60;2.65;;;27.80;99.90;;;;;;4936866;29;20032;-54
2022/09/21 11:24:21;;;;;;;6.03;2.17;;;27.80;99.90;;;;;;4936622;29;20393;-53
2022/09/21 11:26:47;;;;;;;6.20;2.67;;;27.90;99.90;;;;;;4936670;29;20027;-54
2022/09/21 11:29:18;;;;;;;8.00;3.10;;;27.90;99.90;;;;;;4936643;29;20032;-54
2022/09/21 11:31:51;;;;;;;7.22;2.10;;;27.90;99.90;;;;;;4936053;29;20031;-54
2022/09/21 11:34:49;;;;;;;4.95;1.88;;;28.00;99.90;;;;;;4936480;29;20513;-54
2022/09/21 11:37:23;;;;;;;6.15;1.88;;;28.00;99.90;;;;;;4916453;29;20551;-54
2022/09/21 11:39:58;;;;;;;7.30;2.70;;;28.10;99.90;;;;;;4936543;29;20082;-55
2022/09/21 11:42:46;;;;;;;3.72;1.90;;;28.10;99.90;;;;;;4936446;29;20023;-54
2022/09/21 11:45:37;;;;;;;5.80;2.08;;;28.20;99.90;;;;;;4936477;29;20074;-54
2022/09/21 11:48:24;;;;;;;10.95;3.05;;;28.20;99.90;;;;;;4910331;29;20477;-54
2022/09/21 11:51:10;;;;;;;3.50;1.98;;;28.20;99.90;;;;;;4936477;29;20053;-54
2022/09/21 11:54:02;;;;;;;8.97;1.87;;;28.30;99.90;;;;;;4936345;29;20111;-54
2022/09/21 11:56:44;;;;;;;7.38;2.53;;;28.40;99.90;;;;;;4936149;29;20027;-53
2022/09/21 11:59:42;;;;;;;5.55;2.03;;;28.40;99.90;;;;;;4933586;29;20050;-53
2022/09/21 12:02:39;;;;;;;5.75;2.20;;;28.30;99.90;;;;;;4932469;29;20444;-54
2022/09/21 12:05:18;;;;;;;7.55;2.85;;;28.40;99.90;;;;;;4935441;29;20579;-54
2022/09/21 12:08:12;;;;;;;5.75;2.05;;;28.40;99.90;;;;;;4935778;29;20050;-54
2022/09/21 12:10:56;;;;;;;6.53;2.10;;;28.50;99.90;;;;;;4935896;29;20115;-54
2022/09/21 12:13:30;;;;;;;4.00;1.90;;;28.50;99.90;;;;;;4935782;29;20020;-53
2022/09/21 12:16:12;;;;;;;5.25;2.25;;;28.50;99.90;;;;;;4936011;29;20075;-53
2022/09/21 12:19:03;;;;;;;10.15;2.05;;;28.50;99.90;;;;;;4937528;29;20469;-55
2022/09/21 12:21:48;;;;;;;7.95;2.72;;;28.50;99.90;;;;;;4935473;29;20503;-54
2022/09/21 12:24:22;;;;;;;7.05;3.53;;;28.50;99.90;;;;;;4934917;29;20032;-57
2022/09/21 12:27:29;;;;;;;7.30;2.60;;;28.40;99.90;;;;;;4935042;29;20074;-53
2022/09/21 12:30:09;;;;;;;6.32;3.00;;;28.40;99.90;;;;;;4935279;29;20103;-54
2022/09/21 12:32:50;;;;;;;8.95;3.13;;;28.40;99.90;;;;;;4934512;29;20302;-54
2022/09/21 12:35:23;;;;;;;8.13;2.90;;;28.40;99.90;;;;;;4934391;29;20059;-54
2022/09/21 12:38:16;;;;;;;6.45;2.40;;;28.40;99.90;;;;;;4933019;29;20030;-54
2022/09/21 12:40:46;;;;;;;5.20;1.80;;;28.40;99.90;;;;;;4934228;29;20471;-54
2022/09/21 12:43:38;;;;;;;8.73;2.50;;;28.40;99.90;;;;;;4933382;29;20032;-54
2022/09/21 12:46:16;;;;;;;9.25;2.70;;;28.30;99.90;;;;;;4924712;29;20499;-55
2022/09/21 12:48:42;;;;;;;;;;;28.20;99.90;;;;;;4935485;29;20403;-54
2022/09/21 12:51:23;;;;;;;8.93;2.60;;;28.10;99.90;;;;;;4934848;29;19907;-55
2022/09/21 12:53:53;;;;;;;8.85;2.45;;;28.10;99.90;;;;;;4934334;29;20062;-55
2022/09/21 12:56:27;;;;;;;9.18;3.10;;;28.10;99.90;;;;;;4934560;29;20549;-53
2022/09/21 12:59:05;;;;;;;8.93;3.30;;;28.10;99.90;;;;;;4935338;29;20119;-54
2022/09/21 13:01:58;;;;;;;8.02;2.72;;;28.00;99.90;;;;;;4934375;29;20089;-55
2022/09/21 13:04:29;;;;;;;7.60;3.60;;;28.10;99.90;;;;;;4934472;29;20064;-54
2022/09/21 13:07:19;;;;;;;10.73;3.65;;;28.10;99.90;;;;;;4933478;29;20024;-56
2022/09/21 13:09:46;;;;;;;11.32;3.38;;;28.00;99.90;;;;;;4933822;29;20035;-56
2022/09/21 13:12:12;;;;;;;10.95;3.40;;;27.90;99.90;;;;;;4934327;29;20024;-56
2022/09/21 13:14:47;;;;;;;8.48;2.75;;;27.90;99.90;;;;;;4934681;29;20070;-56
2022/09/21 13:17:21;;;;;;;12.32;3.70;;;27.90;99.90;;;;;;4934050;29;20051;-57
2022/09/21 13:20:13;;;;;;;8.73;2.55;;;27.90;99.90;;;;;;4933890;29;20055;-56
2022/09/21 13:22:39;;;;;;;8.68;2.60;;;27.90;99.90;;;;;;4933979;29;20468;-54